createdAt,value
2018-09-01T00:02:04.619Z,3.20
2018-09-01T00:04:33.514Z,3.30
2018-09-01T00:07:02.315Z,2.40
2018-09-01T00:09:34.081Z,3.80
2018-09-01T00:12:03.691Z,3.03
2018-09-01T00:14:32.571Z,2.23
2018-09-01T00:17:01.419Z,2.37
2018-09-01T00:19:30.250Z,2.63
2018-09-01T00:21:59.064Z,2.60
2018-09-01T00:24:27.897Z,3.30
2018-09-01T00:26:56.672Z,2.73
2018-09-01T00:29:25.561Z,2.50
2018-09-01T00:31:54.414Z,2.20
2018-09-01T00:34:23.497Z,2.47
2018-09-01T00:36:52.283Z,2.43
2018-09-01T00:39:21.164Z,2.30
2018-09-01T00:41:50.019Z,2.57
2018-09-01T00:44:18.776Z,2.47
2018-09-01T00:46:47.636Z,3.43
2018-09-01T00:49:16.411Z,2.70
2018-09-01T00:51:45.233Z,2.20
2018-09-01T00:54:14.102Z,2.10
2018-09-01T00:56:42.926Z,2.30
2018-09-01T00:59:11.996Z,2.10
2018-09-01T01:01:41.138Z,2.37
2018-09-01T01:04:09.935Z,3.23
2018-09-01T01:06:38.847Z,2.80
2018-09-01T01:09:08.268Z,2.50
2018-09-01T01:11:37.396Z,3.13
2018-09-01T01:14:06.171Z,3.43
2018-09-01T01:16:35.005Z,2.70
2018-09-01T01:19:03.895Z,2.70
2018-09-01T01:21:33.038Z,2.87
2018-09-01T01:24:01.788Z,3.27
2018-09-01T01:26:30.637Z,2.73
2018-09-01T01:28:59.423Z,2.97
2018-09-01T01:31:28.367Z,2.60
2018-09-01T01:33:57.168Z,2.43
2018-09-01T01:36:25.987Z,2.57
2018-09-01T01:38:54.774Z,2.90
2018-09-01T01:41:23.589Z,3.17
2018-09-01T01:43:52.469Z,2.80
2018-09-01T01:46:21.276Z,2.80
2018-09-01T01:48:50.055Z,2.43
2018-09-01T01:51:18.879Z,3.27
2018-09-01T01:53:47.731Z,2.77
2018-09-01T01:56:16.572Z,2.80
2018-09-01T01:58:45.388Z,3.33
2018-09-01T02:01:14.184Z,3.00
2018-09-01T02:03:43.076Z,2.67
2018-09-01T02:06:11.879Z,3.07
2018-09-01T02:08:40.728Z,3.20
2018-09-01T02:11:09.480Z,2.67
2018-09-01T02:13:38.345Z,2.83
2018-09-01T02:16:07.116Z,3.00
2018-09-01T02:18:35.969Z,2.77
2018-09-01T02:21:05.156Z,2.83
2018-09-01T02:23:34.007Z,2.77
2018-09-01T02:26:02.779Z,2.80
2018-09-01T02:28:31.768Z,2.67
2018-09-01T02:31:00.546Z,2.50
2018-09-01T02:33:29.553Z,3.07
2018-09-01T02:35:58.335Z,3.27
2018-09-01T02:38:27.174Z,3.60
2018-09-01T02:40:55.954Z,3.00
2018-09-01T02:43:24.721Z,2.70
2018-09-01T02:45:53.611Z,3.10
2018-09-01T02:48:22.397Z,3.07
2018-09-01T02:50:51.235Z,3.07
2018-09-01T02:53:20.011Z,3.10
2018-09-01T02:55:48.853Z,3.20
2018-09-01T02:58:17.746Z,3.03
2018-09-01T03:00:51.070Z,2.80
2018-09-01T03:03:19.924Z,3.50
2018-09-01T03:05:48.780Z,3.20
2018-09-01T03:08:17.678Z,3.63
2018-09-01T03:10:46.563Z,3.37
2018-09-01T03:13:15.356Z,3.10
2018-09-01T03:15:44.245Z,2.93
2018-09-01T03:18:13.027Z,3.10
2018-09-01T03:20:41.892Z,4.43
2018-09-01T03:23:10.743Z,3.47
2018-09-01T03:25:39.560Z,3.27
2018-09-01T03:28:08.372Z,3.80
2018-09-01T03:30:37.271Z,3.37
2018-09-01T03:33:06.148Z,3.43
2018-09-01T03:35:35.088Z,3.33
2018-09-01T03:38:03.865Z,4.00
2018-09-01T03:40:32.665Z,3.67
2018-09-01T03:43:01.479Z,3.50
2018-09-01T03:45:30.628Z,3.23
2018-09-01T03:47:59.645Z,3.33
2018-09-01T03:50:28.427Z,3.47
2018-09-01T03:52:57.257Z,3.60
2018-09-01T03:55:26.028Z,3.83
2018-09-01T03:57:54.880Z,3.57
2018-09-01T04:00:27.235Z,3.57
2018-09-01T04:02:56.992Z,3.70
2018-09-01T04:05:26.027Z,3.93
2018-09-01T04:07:54.862Z,4.40
2018-09-01T04:10:24.428Z,3.77
2018-09-01T04:12:53.302Z,3.73
2018-09-01T04:15:22.070Z,3.60
2018-09-01T04:17:50.886Z,4.37
2018-09-01T04:20:19.666Z,3.87
2018-09-01T04:22:48.487Z,3.70
2018-09-01T04:25:17.345Z,3.80
2018-09-01T04:27:46.232Z,3.80
2018-09-01T04:30:14.980Z,4.23
2018-09-01T04:32:43.836Z,4.10
2018-09-01T04:35:12.996Z,3.97
2018-09-01T04:37:42.394Z,4.13
2018-09-01T04:40:11.188Z,4.10
2018-09-01T04:42:39.989Z,4.33
2018-09-01T04:45:10.174Z,4.50
2018-09-01T04:47:38.989Z,4.03
2018-09-01T04:50:08.319Z,4.33
2018-09-01T04:52:37.133Z,4.53
2018-09-01T04:55:05.993Z,4.57
2018-09-01T04:57:34.760Z,4.70
2018-09-01T05:00:03.814Z,4.30
2018-09-01T05:02:32.680Z,4.27
2018-09-01T05:05:01.481Z,5.00
2018-09-01T05:07:30.274Z,4.57
2018-09-01T05:09:59.371Z,4.10
2018-09-01T05:12:28.124Z,4.10
2018-09-01T05:14:57.059Z,4.23
2018-09-01T05:17:25.806Z,4.67
2018-09-01T05:19:54.679Z,4.20
2018-09-01T05:22:23.489Z,4.77
2018-09-01T05:24:52.389Z,3.93
2018-09-01T05:27:21.247Z,4.60
2018-09-01T05:29:50.064Z,5.10
2018-09-01T05:32:18.889Z,4.50
2018-09-01T05:34:47.676Z,5.00
2018-09-01T05:37:16.480Z,4.67
2018-09-01T05:39:45.444Z,4.57
2018-09-01T05:42:14.223Z,5.10
2018-09-01T05:44:43.047Z,4.37
2018-09-01T05:47:11.807Z,4.93
2018-09-01T05:49:40.600Z,3.90
2018-09-01T05:52:09.482Z,4.63
2018-09-01T05:54:39.072Z,4.87
2018-09-01T05:57:08.601Z,4.70
2018-09-01T05:59:38.186Z,4.47
2018-09-01T06:02:07.108Z,4.50
2018-09-01T06:04:36.601Z,3.63
2018-09-01T06:07:05.983Z,4.43
2018-09-01T06:09:34.912Z,4.23
2018-09-01T06:12:04.136Z,4.57
2018-09-01T06:14:32.905Z,4.30
2018-09-01T06:17:01.795Z,3.73
2018-09-01T06:19:30.914Z,5.20
2018-09-01T06:21:59.732Z,4.33
2018-09-01T06:24:28.536Z,5.30
2018-09-01T06:26:58.140Z,4.60
2018-09-01T06:29:27.040Z,4.80
2018-09-01T06:32:00.439Z,4.13
2018-09-01T06:34:29.730Z,4.67
2018-09-01T06:36:58.548Z,4.23
2018-09-01T06:39:28.059Z,4.50
2018-09-01T06:41:56.946Z,4.60
2018-09-01T06:44:25.775Z,3.93
2018-09-01T06:46:54.581Z,3.90
2018-09-01T06:49:23.445Z,3.73
2018-09-01T06:51:52.514Z,4.53
2018-09-01T06:54:21.324Z,3.80
2018-09-01T06:56:50.162Z,5.30
2018-09-01T06:59:18.977Z,4.10
2018-09-01T07:01:47.835Z,4.63
2018-09-01T07:04:16.670Z,3.90
2018-09-01T07:06:45.532Z,4.07
2018-09-01T07:09:14.326Z,4.60
2018-09-01T07:11:43.249Z,4.27
2018-09-01T07:14:12.093Z,4.37
2018-09-01T07:16:40.919Z,3.83
2018-09-01T07:19:09.841Z,3.37
2018-09-01T07:21:38.632Z,3.90
2018-09-01T07:24:07.483Z,4.57
2018-09-01T07:26:36.264Z,3.53
2018-09-01T07:29:05.180Z,4.17
2018-09-01T07:31:34.326Z,6.20
2018-09-01T07:34:03.445Z,3.90
2018-09-01T07:36:32.238Z,3.93
2018-09-01T07:39:01.059Z,3.77
2018-09-01T07:41:29.816Z,4.27
2018-09-01T07:43:58.664Z,4.10
2018-09-01T07:46:27.459Z,4.20
2018-09-01T07:48:56.350Z,4.10
2018-09-01T07:51:25.095Z,3.67
2018-09-01T07:53:53.960Z,3.27
2018-09-01T07:56:22.857Z,3.07
2018-09-01T07:58:51.688Z,2.60
2018-09-01T08:01:20.552Z,2.87
2018-09-01T08:03:49.536Z,2.53
2018-09-01T08:06:18.392Z,2.93
2018-09-01T08:08:47.482Z,2.73
2018-09-01T08:11:16.328Z,2.60
2018-09-01T08:13:45.204Z,2.47
2018-09-01T08:16:14.100Z,2.20
2018-09-01T08:18:42.991Z,2.57
2018-09-01T08:21:11.884Z,2.37
2018-09-01T08:23:40.664Z,2.43
2018-09-01T08:26:09.532Z,2.20
2018-09-01T08:28:38.292Z,1.10
2018-09-01T08:31:07.112Z,1.40
2018-09-01T08:33:36.140Z,1.13
2018-09-01T08:36:07.053Z,1.20
2018-09-01T08:38:36.780Z,1.07
2018-09-01T08:41:05.686Z,1.03
2018-09-01T08:43:34.767Z,1.57
2018-09-01T08:46:03.730Z,1.10
2018-09-01T08:48:32.592Z,1.30
2018-09-01T08:51:01.731Z,1.00
2018-09-01T08:53:30.559Z,1.77
2018-09-01T08:55:59.687Z,8.33
2018-09-01T08:58:28.597Z,0.90
2018-09-01T09:00:57.417Z,1.47
2018-09-01T09:03:26.267Z,1.03
2018-09-01T09:05:55.037Z,1.47
2018-09-01T09:08:23.864Z,1.20
2018-09-01T09:10:52.707Z,1.00
2018-09-01T09:13:21.591Z,0.97
2018-09-01T09:15:50.398Z,0.83
2018-09-01T09:18:19.258Z,1.40
2018-09-01T09:20:48.127Z,1.20
2018-09-01T09:23:17.040Z,1.30
2018-09-01T09:25:45.867Z,1.33
2018-09-01T09:28:14.694Z,1.27
2018-09-01T09:30:43.552Z,1.00
2018-09-01T09:33:12.456Z,1.30
2018-09-01T09:35:41.317Z,1.10
2018-09-01T09:38:10.102Z,0.90
2018-09-01T09:40:38.976Z,1.50
2018-09-01T09:43:07.800Z,1.40
2018-09-01T09:45:36.636Z,1.37
2018-09-01T09:48:05.480Z,1.23
2018-09-01T09:50:34.300Z,1.20
2018-09-01T09:53:03.518Z,1.00
2018-09-01T09:55:32.303Z,1.27
2018-09-01T09:58:01.063Z,1.10
2018-09-01T10:00:35.542Z,1.30
2018-09-01T10:03:04.386Z,1.40
2018-09-01T10:05:33.327Z,1.40
2018-09-01T10:08:02.168Z,1.13
2018-09-01T10:10:31.123Z,1.40
2018-09-01T10:12:59.876Z,1.10
2018-09-01T10:15:28.711Z,1.20
2018-09-01T10:17:57.477Z,1.63
2018-09-01T10:20:26.395Z,1.27
2018-09-01T10:22:55.259Z,1.63
2018-09-01T10:25:24.098Z,1.63
2018-09-01T10:27:52.893Z,2.43
2018-09-01T10:30:21.733Z,1.63
2018-09-01T10:32:50.573Z,1.30
2018-09-01T10:35:19.491Z,1.57
2018-09-01T10:37:48.627Z,1.90
2018-09-01T10:40:17.455Z,1.80
2018-09-01T10:42:46.268Z,2.70
2018-09-01T10:45:15.061Z,2.80
2018-09-01T10:47:44.241Z,2.50
2018-09-01T10:50:13.072Z,2.10
2018-09-01T10:52:41.906Z,1.90
2018-09-01T10:55:10.669Z,1.93
2018-09-01T10:57:39.505Z,1.80
2018-09-01T11:00:08.720Z,1.53
2018-09-01T11:02:37.502Z,1.83
2018-09-01T11:05:06.393Z,2.13
2018-09-01T11:07:35.156Z,2.40
2018-09-01T11:10:04.089Z,1.93
2018-09-01T11:12:33.003Z,2.00
2018-09-01T11:15:01.771Z,1.57
2018-09-01T11:17:30.585Z,1.67
2018-09-01T11:19:59.564Z,1.87
2018-09-01T11:22:28.527Z,1.90
2018-09-01T11:24:57.341Z,1.73
2018-09-01T11:27:26.176Z,2.13
2018-09-01T11:29:54.937Z,1.63
2018-09-01T11:32:23.775Z,2.30
2018-09-01T11:34:52.519Z,2.47
2018-09-01T11:37:21.323Z,2.40
2018-09-01T11:39:50.129Z,2.30
2018-09-01T11:42:18.956Z,3.30
2018-09-01T11:44:47.776Z,3.43
2018-09-01T11:47:16.591Z,2.63
2018-09-01T11:49:45.534Z,2.40
2018-09-01T11:52:14.359Z,2.63
2018-09-01T11:54:43.172Z,1.93
2018-09-01T11:57:11.918Z,2.60
2018-09-01T11:59:40.723Z,2.20
2018-09-01T12:02:16.386Z,2.30
2018-09-01T12:04:45.151Z,2.23
2018-09-01T12:07:13.938Z,2.10
2018-09-01T12:09:42.780Z,2.00
2018-09-01T12:12:11.627Z,2.00
2018-09-01T12:14:40.470Z,2.50
2018-09-01T12:17:09.586Z,1.80
2018-09-01T12:19:38.452Z,2.00
2018-09-01T12:22:07.393Z,2.20
2018-09-01T12:24:36.245Z,2.20
2018-09-01T12:27:05.167Z,2.63
2018-09-01T12:29:34.032Z,2.87
2018-09-01T12:32:03.035Z,2.47
2018-09-01T12:34:32.480Z,2.60
2018-09-01T12:37:01.455Z,2.50
2018-09-01T12:39:30.268Z,2.80
2018-09-01T12:41:59.162Z,2.13
2018-09-01T12:44:28.042Z,2.60
2018-09-01T12:46:56.863Z,1.90
2018-09-01T12:49:25.674Z,1.80
2018-09-01T12:51:54.494Z,2.00
2018-09-01T12:54:23.270Z,2.10
2018-09-01T12:56:52.111Z,1.73
2018-09-01T12:59:20.972Z,2.10
2018-09-01T13:01:49.852Z,2.37
2018-09-01T13:04:18.627Z,2.27
2018-09-01T13:06:47.466Z,2.40
2018-09-01T13:09:16.242Z,2.80
2018-09-01T13:11:45.352Z,2.40
2018-09-01T13:14:14.234Z,2.53
2018-09-01T13:16:43.018Z,2.80
2018-09-01T13:19:12.143Z,2.10
2018-09-01T13:21:40.949Z,1.63
2018-09-01T13:24:09.729Z,1.97
2018-09-01T13:26:38.651Z,1.73
2018-09-01T13:29:07.407Z,1.47
2018-09-01T13:31:36.377Z,1.80
2018-09-01T13:34:05.371Z,2.00
2018-09-01T13:36:34.147Z,1.73
2018-09-01T13:39:04.173Z,1.87
2018-09-01T13:41:32.960Z,1.70
2018-09-01T13:44:01.812Z,1.80
2018-09-01T13:46:30.568Z,1.53
2018-09-01T13:48:59.386Z,1.47
2018-09-01T13:51:28.266Z,1.43
2018-09-01T13:53:57.056Z,1.50
2018-09-01T13:56:25.839Z,1.70
2018-09-01T13:58:54.647Z,1.33
2018-09-01T14:01:23.395Z,1.63
2018-09-01T14:03:52.238Z,1.70
2018-09-01T14:06:20.977Z,1.50
2018-09-01T14:08:49.777Z,1.50
2018-09-01T14:11:18.606Z,1.77
2018-09-01T14:13:47.651Z,1.67
2018-09-01T14:16:16.490Z,1.10
2018-09-01T14:18:45.316Z,1.53
2018-09-01T14:21:14.099Z,1.60
2018-09-01T14:23:42.888Z,1.50
2018-09-01T14:26:11.725Z,1.10
2018-09-01T14:28:40.902Z,1.23
2018-09-01T14:31:09.679Z,1.30
2018-09-01T14:33:38.450Z,1.13
2018-09-01T14:36:07.604Z,1.63
2018-09-01T14:38:36.370Z,1.10
2018-09-01T14:41:05.434Z,1.50
2018-09-01T14:43:34.172Z,1.33
2018-09-01T14:46:02.967Z,1.30
2018-09-01T14:48:31.799Z,1.00
2018-09-01T14:51:00.639Z,1.00
2018-09-01T14:53:29.479Z,1.30
2018-09-01T14:55:58.348Z,1.40
2018-09-01T14:58:27.107Z,1.40
2018-09-01T15:00:55.894Z,1.50
2018-09-01T15:03:24.655Z,1.10
2018-09-01T15:05:53.550Z,1.27
2018-09-01T15:08:22.343Z,1.43
2018-09-01T15:10:51.181Z,1.30
2018-09-01T15:13:19.931Z,1.27
2018-09-01T15:15:48.825Z,1.07
2018-09-01T15:18:17.642Z,1.00
2018-09-01T15:20:46.473Z,0.77
2018-09-01T15:23:15.202Z,1.20
2018-09-01T15:25:44.214Z,1.20
2018-09-01T15:28:13.003Z,0.90
2018-09-01T15:30:41.880Z,1.13
2018-09-01T15:33:10.694Z,1.00
2018-09-01T15:35:39.508Z,1.10
2018-09-01T15:38:08.328Z,1.43
2018-09-01T15:40:37.219Z,1.27
2018-09-01T15:43:06.344Z,1.20
2018-09-01T15:45:37.998Z,1.30
2018-09-01T15:48:06.971Z,1.10
2018-09-01T15:50:36.139Z,1.70
2018-09-01T15:53:05.103Z,0.63
2018-09-01T15:55:33.972Z,1.00
2018-09-01T15:58:02.791Z,1.00
2018-09-01T16:00:31.560Z,1.10
2018-09-01T16:03:00.695Z,1.00
2018-09-01T16:05:29.477Z,1.23
2018-09-01T16:07:58.377Z,0.90
2018-09-01T16:10:27.186Z,1.10
2018-09-01T16:12:55.992Z,0.90
2018-09-01T16:15:24.744Z,1.00
2018-09-01T16:17:53.539Z,0.90
2018-09-01T16:20:22.365Z,0.93
2018-09-01T16:22:51.175Z,1.03
2018-09-01T16:25:19.947Z,0.97
2018-09-01T16:27:48.804Z,0.80
2018-09-01T16:30:17.550Z,1.10
2018-09-01T16:32:46.379Z,1.00
2018-09-01T16:35:15.213Z,1.40
2018-09-01T16:37:44.091Z,0.87
2018-09-01T16:40:12.955Z,0.83
2018-09-01T16:42:41.723Z,1.03
2018-09-01T16:45:11.549Z,1.33
2018-09-01T16:47:40.352Z,1.20
2018-09-01T16:50:09.220Z,1.20
2018-09-01T16:52:38.014Z,1.20
2018-09-01T16:55:07.248Z,1.20
2018-09-01T16:57:36.128Z,1.10
2018-09-01T17:00:05.747Z,1.20
2018-09-01T17:02:34.530Z,0.80
2018-09-01T17:05:03.752Z,0.93
2018-09-01T17:07:32.557Z,1.10
2018-09-01T17:10:01.496Z,0.90
2018-09-01T17:12:30.347Z,1.10
2018-09-01T17:14:59.565Z,1.10
2018-09-01T17:17:28.329Z,0.80
2018-09-01T17:19:57.231Z,0.93
2018-09-01T17:22:26.059Z,0.80
2018-09-01T17:24:54.903Z,1.20
2018-09-01T17:27:23.751Z,1.30
2018-09-01T17:29:52.516Z,0.70
2018-09-01T17:32:21.367Z,1.20
2018-09-01T17:34:50.215Z,1.07
2018-09-01T17:37:19.031Z,0.97
2018-09-01T17:39:47.795Z,2.17
2018-09-01T17:42:16.645Z,1.40
2018-09-01T17:44:45.531Z,1.30
2018-09-01T17:47:14.411Z,1.00
2018-09-01T17:49:43.176Z,1.17
2018-09-01T17:52:12.062Z,1.10
2018-09-01T17:54:40.919Z,1.03
2018-09-01T17:57:09.815Z,0.87
2018-09-01T17:59:38.812Z,1.20
2018-09-01T18:02:07.822Z,1.83
2018-09-01T18:04:36.636Z,1.00
2018-09-01T18:07:05.627Z,1.20
2018-09-01T18:09:34.482Z,0.90
2018-09-01T18:12:03.432Z,1.23
2018-09-01T18:14:32.293Z,1.07
2018-09-01T18:17:01.129Z,1.30
2018-09-01T18:19:29.944Z,1.03
2018-09-01T18:21:58.772Z,1.63
2018-09-01T18:24:28.329Z,1.10
2018-09-01T18:26:57.111Z,2.50
2018-09-01T18:29:25.982Z,1.30
2018-09-01T18:31:55.043Z,1.30
2018-09-01T18:34:24.060Z,1.13
2018-09-01T18:36:53.111Z,1.30
2018-09-01T18:39:22.530Z,1.23
2018-09-01T18:41:51.366Z,1.20
2018-09-01T18:44:21.730Z,1.23
2018-09-01T18:46:51.058Z,1.00
2018-09-01T18:49:19.937Z,1.10
2018-09-01T18:51:48.802Z,1.13
2018-09-01T18:54:17.657Z,1.40
2018-09-01T18:56:47.133Z,1.20
2018-09-01T18:59:16.431Z,1.33
2018-09-01T19:01:45.272Z,1.03
2018-09-01T19:04:14.135Z,1.27
2018-09-01T19:06:42.997Z,1.27
2018-09-01T19:09:11.925Z,1.20
2018-09-01T19:11:40.795Z,1.50
2018-09-01T19:14:13.358Z,1.60
2018-09-01T19:16:43.260Z,1.30
2018-09-01T19:19:12.136Z,2.13
2018-09-01T19:21:41.044Z,1.10
2018-09-01T19:24:10.015Z,1.10
2018-09-01T19:26:38.870Z,1.13
2018-09-01T19:29:07.670Z,0.80
2018-09-01T19:31:36.520Z,1.20
2018-09-01T19:34:05.586Z,1.23
2018-09-01T19:36:34.710Z,1.37
2018-09-01T19:39:04.466Z,1.30
2018-09-01T19:41:33.284Z,1.43
2018-09-01T19:44:02.071Z,1.33
2018-09-01T19:46:30.932Z,1.57
2018-09-01T19:48:59.811Z,1.10
2018-09-01T19:51:28.654Z,1.37
2018-09-01T19:53:57.457Z,2.10
2018-09-01T19:56:26.271Z,1.47
2018-09-01T19:58:55.092Z,1.67
2018-09-01T20:01:23.985Z,1.40
2018-09-01T20:03:53.124Z,1.63
2018-09-01T20:06:21.910Z,1.90
2018-09-01T20:08:50.811Z,1.47
2018-09-01T20:11:19.710Z,1.20
2018-09-01T20:13:48.940Z,1.47
2018-09-01T20:16:17.767Z,1.63
2018-09-01T20:18:46.524Z,1.73
2018-09-01T20:21:15.375Z,1.60
2018-09-01T20:23:44.147Z,1.40
2018-09-01T20:26:13.067Z,2.13
2018-09-01T20:28:41.940Z,1.70
2018-09-01T20:31:10.715Z,1.40
2018-09-01T20:33:39.563Z,1.70
2018-09-01T20:36:14.393Z,1.47
2018-09-01T20:38:43.637Z,1.80
2018-09-01T20:41:12.530Z,1.60
2018-09-01T20:43:41.338Z,1.50
2018-09-01T20:46:10.132Z,1.83
2018-09-01T20:48:39.022Z,2.07
2018-09-01T20:51:07.887Z,2.63
2018-09-01T20:53:36.715Z,2.70
2018-09-01T20:56:05.696Z,2.77
2018-09-01T20:58:34.543Z,2.80
2018-09-01T21:01:03.356Z,2.90
2018-09-01T21:03:32.295Z,2.30
2018-09-01T21:06:01.143Z,3.60
2018-09-01T21:08:30.776Z,3.30
2018-09-01T21:10:59.539Z,3.03
2018-09-01T21:13:28.368Z,2.90
2018-09-01T21:15:57.240Z,2.67
2018-09-01T21:18:26.068Z,2.73
2018-09-01T21:20:54.850Z,3.27
2018-09-01T21:23:25.370Z,2.90
2018-09-01T21:25:55.790Z,2.73
2018-09-01T21:28:24.784Z,3.07
2018-09-01T21:30:53.959Z,3.00
2018-09-01T21:33:22.781Z,2.80
2018-09-01T21:35:51.596Z,2.87
2018-09-01T21:38:20.399Z,2.50
2018-09-01T21:40:49.327Z,3.13
2018-09-01T21:43:18.103Z,2.70
2018-09-01T21:45:46.917Z,2.63
2018-09-01T21:48:15.695Z,3.40
2018-09-01T21:50:44.543Z,2.90
2018-09-01T21:53:13.390Z,3.00
2018-09-01T21:55:42.291Z,3.10
2018-09-01T21:58:11.065Z,3.10
2018-09-01T22:00:44.548Z,3.37
2018-09-01T22:03:13.387Z,3.23
2018-09-01T22:05:42.772Z,3.53
2018-09-01T22:08:11.627Z,3.10
2018-09-01T22:10:40.478Z,3.37
2018-09-01T22:13:09.575Z,2.80
2018-09-01T22:15:38.464Z,3.03
2018-09-01T22:18:07.338Z,3.97
2018-09-01T22:20:36.272Z,3.33
2018-09-01T22:23:05.504Z,3.30
2018-09-01T22:25:34.327Z,3.50
2018-09-01T22:28:03.294Z,3.40
2018-09-01T22:30:32.350Z,3.50
2018-09-01T22:33:01.137Z,3.40
2018-09-01T22:35:30.273Z,3.60
2018-09-01T22:37:59.090Z,3.50
2018-09-01T22:40:27.936Z,3.43
2018-09-01T22:42:56.899Z,3.47
2018-09-01T22:45:25.762Z,2.87
2018-09-01T22:47:54.671Z,3.03
2018-09-01T22:50:23.437Z,3.10
2018-09-01T22:52:52.258Z,3.27
2018-09-01T22:55:21.120Z,3.00
2018-09-01T22:57:50.185Z,2.90
2018-09-01T23:00:18.968Z,2.30
2018-09-01T23:02:47.879Z,2.87
2018-09-01T23:05:16.659Z,2.40
2018-09-01T23:07:45.568Z,3.47
2018-09-01T23:10:14.362Z,3.43
2018-09-01T23:12:43.200Z,3.83
2018-09-01T23:15:12.007Z,3.60
2018-09-01T23:17:40.778Z,3.30
2018-09-01T23:20:09.676Z,3.27
2018-09-01T23:22:38.458Z,3.10
2018-09-01T23:25:07.335Z,3.00
2018-09-01T23:27:36.176Z,3.43
2018-09-01T23:30:05.143Z,2.70
2018-09-01T23:32:33.994Z,3.10
2018-09-01T23:35:02.844Z,3.00
2018-09-01T23:37:31.634Z,2.63
2018-09-01T23:40:00.582Z,3.20
2018-09-01T23:42:29.400Z,3.17
2018-09-01T23:45:01.179Z,3.03
2018-09-01T23:47:29.933Z,3.27
2018-09-01T23:49:58.818Z,2.93
2018-09-01T23:52:27.610Z,3.73
2018-09-01T23:54:56.422Z,3.00
2018-09-01T23:57:25.263Z,3.00
2018-09-01T23:59:54.110Z,3.93
